Time;durP1;ratioP1;P1;durP2;ratioP2;P2;SDS_P1;SDS_P2;PMS_P1;PMS_P2;Temp;Humidity;BMP_temperature;BMP_pressure;BME280_temperature;BME280_humidity;BME280_pressure;Samples;Min_cycle;Max_cycle;Signal;HPM_P1;HPM_P2
2023/06/16 00:03:49;;;;;;;11.80;9.00;;;;;;;13.17;99.62;100168.63;187118;1234;43632;-59
2023/06/16 00:07:52;;;;;;;19.10;10.70;;;;;;;13.13;99.84;100166.64;187082;1234;58171;-60
2023/06/16 00:11:56;;;;;;;13.60;10.10;;;;;;;13.10;99.98;100163.92;187064;1234;43678;-57
2023/06/16 00:15:58;;;;;;;13.90;11.10;;;;;;;13.01;100.00;100161.90;186744;1234;43331;-59
2023/06/16 00:20:00;;;;;;;11.20;9.50;;;;;;;13.01;100.00;100158.64;187110;1234;43733;-58
2023/06/16 00:24:06;;;;;;;17.80;10.80;;;;;;;13.03;100.00;100151.95;187085;1234;42983;-61
2023/06/16 00:28:07;;;;;;;11.70;9.90;;;;;;;13.02;99.97;100149.52;186773;1234;59402;-59
2023/06/16 00:32:09;;;;;;;13.20;10.90;;;;;;;13.02;100.00;100145.80;187009;1234;43138;-59
2023/06/16 00:36:10;;;;;;;12.90;8.60;;;;;;;13.02;99.92;100146.30;187065;1234;43658;-59
2023/06/16 00:40:43;;;;;;;11.50;8.40;;;;;;;13.03;99.57;100141.48;187074;1234;43688;-58
2023/06/16 00:44:44;;;;;;;14.00;9.00;;;;;;;12.97;99.74;100139.44;187061;1234;43616;-58
2023/06/16 00:48:46;;;;;;;14.10;9.10;;;;;;;12.95;99.83;100138.23;186950;1234;58415;-59
2023/06/16 00:52:48;;;;;;;9.50;8.40;;;;;;;12.87;100.00;100139.85;187038;1234;42956;-59
2023/06/16 00:56:51;;;;;;;15.40;9.20;;;;;;;12.71;100.00;100140.84;186771;1234;43633;-58
2023/06/16 01:00:53;;;;;;;17.40;9.10;;;;;;;12.56;100.00;100142.23;186690;1238;43532;-58
2023/06/16 01:04:54;;;;;;;13.70;8.70;;;;;;;12.52;100.00;100133.48;187024;1234;42925;-59
2023/06/16 01:09:28;;;;;;;16.60;8.40;;;;;;;12.49;100.00;100132.73;187084;1235;58027;-59
2023/06/16 01:13:52;;;;;;;14.10;9.00;;;;;;;12.47;99.95;100130.05;187030;1238;43864;-58
2023/06/16 01:17:59;;;;;;;11.40;8.80;;;;;;;12.47;99.95;100121.39;187021;1234;42973;-59
2023/06/16 01:22:26;;;;;;;13.00;8.40;;;;;;;12.44;99.99;100120.54;186806;1234;42899;-58
2023/06/16 01:26:31;;;;;;;16.20;8.20;;;;;;;12.42;99.63;100122.48;186965;1234;43348;-60
2023/06/16 01:30:34;;;;;;;15.30;9.50;;;;;;;12.43;99.11;100124.73;186740;1235;57926;-61
2023/06/16 01:34:38;;;;;;;16.20;10.70;;;;;;;12.36;99.64;100126.42;187054;1234;43295;-58
2023/06/16 01:38:42;;;;;;;29.30;8.90;;;;;;;12.30;100.00;100124.16;186821;1234;42947;-58
2023/06/16 01:42:47;;;;;;;19.30;10.80;;;;;;;12.22;100.00;100120.92;186777;1234;43005;-57
2023/06/16 01:46:48;;;;;;;15.10;10.80;;;;;;;12.07;100.00;100120.50;186723;1234;43245;-58
2023/06/16 01:50:51;;;;;;;16.20;11.60;;;;;;;11.92;100.00;100119.90;187020;1238;57941;-58
2023/06/16 01:54:52;;;;;;;16.30;11.70;;;;;;;11.84;100.00;100117.67;187040;1234;43098;-59
2023/06/16 01:58:54;;;;;;;17.80;12.10;;;;;;;11.81;100.00;100115.48;186959;1234;42949;-58
2023/06/16 02:03:04;;;;;;;14.70;9.90;;;;;;;11.78;100.00;100118.08;187087;1234;43020;-58
2023/06/16 02:07:12;;;;;;;18.60;12.20;;;;;;;11.79;100.00;100113.92;186711;1234;42969;-58
2023/06/16 02:11:15;;;;;;;17.80;10.50;;;;;;;11.80;100.00;100111.30;186652;1234;58087;-61
2023/06/16 02:15:18;;;;;;;15.10;9.80;;;;;;;11.82;100.00;100113.30;187028;1234;43626;-57
2023/06/16 02:19:20;;;;;;;21.50;10.00;;;;;;;11.81;100.00;100114.98;186624;1234;43003;-60
2023/06/16 02:23:21;;;;;;;15.20;9.30;;;;;;;11.80;100.00;100112.26;187002;1234;43121;-59
2023/06/16 02:27:23;;;;;;;20.90;10.40;;;;;;;11.75;100.00;100117.59;187014;1234;43621;-58
2023/06/16 02:31:24;;;;;;;15.50;8.40;;;;;;;11.62;100.00;100122.37;186978;1235;57904;-57
2023/06/16 02:35:26;;;;;;;15.70;10.40;;;;;;;11.52;100.00;100123.89;187012;1234;43066;-57
2023/06/16 02:39:28;;;;;;;17.00;10.60;;;;;;;11.46;100.00;100122.33;187030;1234;43013;-58
2023/06/16 02:43:31;;;;;;;13.00;8.60;;;;;;;11.47;100.00;100122.41;186754;1234;43592;-58
2023/06/16 02:47:33;;;;;;;26.50;10.40;;;;;;;11.55;100.00;100126.16;187037;1234;42928;-59
2023/06/16 02:51:34;;;;;;;25.80;11.80;;;;;;;11.61;100.00;100126.66;187086;1238;60465;-57
2023/06/16 02:55:36;;;;;;;11.90;8.40;;;;;;;11.64;100.00;100122.17;187058;1234;43712;-58
2023/06/16 03:04:41;;;;;;;21.80;9.30;;;;;;;11.69;100.00;100127.97;187040;1234;43014;-58
2023/06/16 03:08:42;;;;;;;14.90;9.10;;;;;;;11.71;100.00;100123.86;187014;1234;43610;-57
2023/06/16 03:12:44;;;;;;;13.90;9.20;;;;;;;11.72;100.00;100126.27;187000;1234;58207;-58
2023/06/16 03:16:50;;;;;;;12.40;9.70;;;;;;;11.79;100.00;100128.30;187013;1236;42927;-57
2023/06/16 03:21:45;;;;;;;12.20;8.40;;;;;;;11.88;100.00;100134.93;186736;1234;43702;-58
2023/06/16 03:25:47;;;;;;;16.70;9.50;;;;;;;11.98;100.00;100129.95;187080;1234;43616;-58
2023/06/16 03:29:56;;;;;;;13.60;9.20;;;;;;;12.01;100.00;100131.71;186986;1234;43586;-57
2023/06/16 03:33:57;;;;;;;22.90;9.20;;;;;;;12.13;100.00;100130.46;186725;1235;57960;-57
2023/06/16 03:38:11;;;;;;;12.40;8.20;;;;;;;12.33;100.00;100128.49;186992;1234;43597;-58
2023/06/16 03:42:13;;;;;;;12.60;8.50;;;;;;;12.44;100.00;100129.55;186993;1234;42997;-58
2023/06/16 03:46:15;;;;;;;16.20;8.60;;;;;;;12.43;100.00;100129.90;186805;1236;85871;-87
2023/06/16 03:50:17;;;;;;;19.80;7.60;;;;;;;12.33;100.00;100131.30;186818;1232;43654;-90
2023/06/16 03:54:20;;;;;;;30.40;8.50;;;;;;;12.31;100.00;100126.30;187001;1234;60284;-91
2023/06/16 03:58:22;;;;;;;14.40;7.70;;;;;;;12.52;100.00;100122.50;186802;1232;43817;-89
2023/06/16 04:02:24;;;;;;;9.10;7.50;;;;;;;12.79;100.00;100119.30;186944;1234;43815;-91
2023/06/16 04:06:27;;;;;;;12.30;8.20;;;;;;;13.02;100.00;100121.25;187230;1231;86855;-57
2023/06/16 04:10:31;;;;;;;13.00;7.40;;;;;;;13.27;100.00;100115.80;187474;1235;42937;-58
2023/06/16 04:14:34;;;;;;;11.40;6.80;;;;;;;13.54;100.00;100119.64;187343;1231;58425;-57
2023/06/16 04:18:35;;;;;;;12.10;7.80;;;;;;;13.86;100.00;100121.56;187472;1231;43716;-57
2023/06/16 04:22:37;;;;;;;21.30;8.80;;;;;;;14.30;100.00;100130.48;187459;1231;42911;-57
2023/06/16 04:26:41;;;;;;;10.80;7.50;;;;;;;14.83;100.00;100123.40;187366;1231;44101;-58
2023/06/16 04:30:44;;;;;;;12.10;7.70;;;;;;;15.31;99.99;100119.22;187356;1231;42945;-60
2023/06/16 04:34:46;;;;;;;15.50;8.10;;;;;;;15.66;100.00;100113.91;187437;1231;58238;-57
2023/06/16 04:38:47;;;;;;;9.60;6.20;;;;;;;16.73;100.00;100107.28;187148;1231;43729;-58
2023/06/16 04:42:49;;;;;;;10.60;7.40;;;;;;;17.54;92.83;100099.55;187382;1231;42976;-58
2023/06/16 04:46:52;;;;;;;9.90;7.00;;;;;;;17.77;89.51;100094.05;187347;1231;43568;-61
2023/06/16 04:50:53;;;;;;;15.00;6.70;;;;;;;18.42;90.64;100095.67;187377;1231;43279;-59
2023/06/16 04:54:55;;;;;;;12.50;7.00;;;;;;;19.17;85.81;100093.29;187412;1231;57973;-61
2023/06/16 05:08:04;;;;;;;10.30;6.90;;;;;;;21.32;77.68;100084.64;187243;1233;43525;-58
2023/06/16 05:12:27;;;;;;;;;;;;;;;21.75;72.01;100080.67;186871;1233;86907;-61
2023/06/16 05:16:51;;;;;;;8.90;6.00;;;;;;;21.91;71.29;100079.48;186533;1237;85490;-60
2023/06/16 05:20:54;;;;;;;6.50;5.30;;;;;;;21.71;72.80;100077.03;186725;1234;86192;-61
2023/06/16 05:24:57;;;;;;;11.00;6.80;;;;;;;21.37;74.10;100075.92;187151;1234;43652;-60
2023/06/16 05:29:00;;;;;;;9.90;7.10;;;;;;;21.61;74.12;100074.02;187251;1234;43361;-59
2023/06/16 05:33:14;;;;;;;7.20;6.00;;;;;;;22.13;73.27;100069.32;186943;1234;10131769;-60
2023/06/16 05:37:17;;;;;;;13.80;7.10;;;;;;;21.83;73.30;100073.91;187145;1234;43003;-61
2023/06/16 05:41:23;;;;;;;8.50;6.50;;;;;;;21.21;76.11;100081.62;187258;1233;43700;-60
2023/06/16 05:45:25;;;;;;;7.60;6.80;;;;;;;20.71;77.53;100082.83;187267;1234;42921;-62
2023/06/16 05:49:26;;;;;;;10.40;6.70;;;;;;;20.74;78.65;100082.66;187012;1234;58418;-60
2023/06/16 05:54:07;;;;;;;7.20;6.50;;;;;;;20.92;75.86;100081.16;187212;1234;43611;-61
2023/06/16 05:58:09;;;;;;;8.10;6.70;;;;;;;21.05;77.71;100085.15;187231;1233;43176;-59
2023/06/16 06:02:12;;;;;;;12.30;8.50;;;;;;;20.70;77.09;100090.77;187313;1233;43756;-61
2023/06/16 06:06:15;;;;;;;14.30;7.70;;;;;;;20.55;79.32;100083.72;187020;1233;43682;-61
2023/06/16 06:10:16;;;;;;;10.50;7.70;;;;;;;20.51;80.01;100089.59;187340;1234;58172;-60
2023/06/16 06:14:18;;;;;;;9.80;7.60;;;;;;;20.46;79.97;100091.34;187304;1234;43029;-60
2023/06/16 06:18:20;;;;;;;10.10;7.90;;;;;;;20.29;80.74;100088.74;187286;1233;43685;-60
2023/06/16 06:22:21;;;;;;;12.40;7.60;;;;;;;20.28;81.41;100092.36;187338;1233;43008;-61
2023/06/16 06:26:23;;;;;;;8.70;7.40;;;;;;;20.33;82.45;100093.64;187111;1234;43013;-59
2023/06/16 06:30:27;;;;;;;17.50;8.50;;;;;;;20.36;82.05;100095.33;187249;1234;57904;-59
2023/06/16 06:34:28;;;;;;;8.30;7.00;;;;;;;20.36;82.04;100094.34;187309;1234;43018;-58
2023/06/16 06:38:30;;;;;;;12.00;7.90;;;;;;;20.52;84.13;100096.04;187276;1234;42940;-60
2023/06/16 06:42:32;;;;;;;9.50;7.90;;;;;;;20.72;82.74;100097.10;187305;1234;42993;-60
2023/06/16 06:46:34;;;;;;;11.80;9.00;;;;;;;20.94;82.97;100099.51;186939;1234;43645;-59
2023/06/16 06:50:36;;;;;;;9.50;8.60;;;;;;;21.15;82.64;100102.79;187266;1237;58074;-59
2023/06/16 06:54:37;;;;;;;9.90;7.40;;;;;;;21.51;79.87;100104.81;187252;1234;43675;-58
2023/06/16 06:58:50;;;;;;;10.60;8.30;;;;;;;21.81;77.59;100099.99;187293;1233;43630;-59
2023/06/16 07:02:51;;;;;;;9.80;6.70;;;;;;;21.88;75.45;100098.50;187262;1234;43700;-60
2023/06/16 07:06:53;;;;;;;9.70;6.70;;;;;;;21.86;76.04;100102.16;187286;1234;42910;-57
2023/06/16 07:10:55;;;;;;;9.60;8.10;;;;;;;21.94;75.74;100102.77;187305;1234;57983;-57
2023/06/16 07:14:56;;;;;;;11.60;7.90;;;;;;;21.98;75.96;100103.02;187269;1234;42975;-58
2023/06/16 07:18:58;;;;;;;9.60;6.30;;;;;;;22.30;74.12;100104.14;187009;1233;42996;-60
2023/06/16 07:23:55;;;;;;;9.30;8.00;;;;;;;22.51;73.37;100102.52;187157;1233;43212;-59
2023/06/16 07:27:58;;;;;;;8.40;6.40;;;;;;;22.59;72.53;100107.23;187212;1234;42960;-58
2023/06/16 07:31:59;;;;;;;12.60;6.50;;;;;;;22.87;71.00;100108.58;187207;1234;59155;-58
2023/06/16 07:36:01;;;;;;;6.30;5.10;;;;;;;23.34;70.08;100104.40;187292;1233;43378;-57
2023/06/16 07:40:06;;;;;;;5.90;4.20;;;;;;;23.76;68.34;100103.22;187393;1234;43525;-58
2023/06/16 07:44:08;;;;;;;4.60;3.70;;;;;;;23.76;65.73;100100.88;187380;1233;43084;-62
2023/06/16 07:48:10;;;;;;;4.90;3.50;;;;;;;23.64;66.62;100104.67;187106;1233;42936;-59
2023/06/16 07:52:13;;;;;;;6.80;4.20;;;;;;;23.74;67.14;100103.69;187086;1234;59114;-59
2023/06/16 07:56:18;;;;;;;6.50;4.00;;;;;;;23.98;66.27;100101.87;187283;1233;43637;-59
2023/06/16 08:00:21;;;;;;;6.70;4.70;;;;;;;24.40;64.17;100098.54;187289;1234;43566;-59
2023/06/16 08:04:29;;;;;;;5.60;4.20;;;;;;;24.45;62.43;100096.73;187252;1234;43036;-60
2023/06/16 08:08:33;;;;;;;4.40;2.50;;;;;;;24.64;59.56;100092.92;187330;1233;43707;-61
2023/06/16 08:12:34;;;;;;;6.00;3.60;;;;;;;24.68;61.34;100090.47;187280;1234;59385;-61
2023/06/16 08:16:36;;;;;;;4.10;3.00;;;;;;;24.48;61.46;100092.15;187057;1235;43664;-60
2023/06/16 08:20:37;;;;;;;5.30;3.30;;;;;;;24.73;62.19;100099.66;187050;1234;43716;-61
2023/06/16 08:24:39;;;;;;;4.20;3.70;;;;;;;25.08;60.53;100092.27;187201;1237;43093;-61
2023/06/16 08:28:42;;;;;;;4.50;3.80;;;;;;;25.28;59.68;100084.17;186715;1233;43010;-61
2023/06/16 08:32:43;;;;;;;4.90;4.30;;;;;;;25.44;60.88;100083.11;187244;1234;58338;-62
2023/06/16 08:36:50;;;;;;;4.40;3.60;;;;;;;25.20;59.43;100085.87;187142;1234;43388;-61
2023/06/16 08:40:51;;;;;;;5.30;3.20;;;;;;;25.20;60.37;100078.37;187035;1237;43034;-61
2023/06/16 08:44:54;;;;;;;5.20;4.10;;;;;;;25.30;61.32;100076.69;187244;1234;43057;-61
2023/06/16 08:48:57;;;;;;;4.70;3.90;;;;;;;25.44;59.11;100075.02;187029;1234;43789;-61
2023/06/16 08:53:00;;;;;;;9.30;4.20;;;;;;;25.48;59.62;100068.36;187226;1234;58027;-63
2023/06/16 08:57:04;;;;;;;4.20;3.60;;;;;;;25.60;59.39;100063.30;187250;1234;43006;-62
2023/06/16 09:01:08;;;;;;;3.50;3.00;;;;;;;25.70;60.10;100065.01;187005;1234;43715;-63
2023/06/16 09:05:10;;;;;;;4.00;3.00;;;;;;;25.98;59.57;100056.37;187200;1235;43687;-62
2023/06/16 09:09:13;;;;;;;7.70;3.70;;;;;;;26.06;58.82;100053.60;186997;1234;43393;-61
2023/06/16 09:13:17;;;;;;;4.80;3.40;;;;;;;25.77;57.54;100056.17;187090;1234;58138;-61
2023/06/16 09:17:27;;;;;;;5.20;3.30;;;;;;;25.47;57.79;100054.83;187194;1234;44040;-59
2023/06/16 09:21:29;;;;;;;5.20;2.60;;;;;;;25.31;57.39;100050.89;187005;1234;43044;-63
2023/06/16 09:25:42;;;;;;;3.20;2.90;;;;;;;25.42;60.56;100050.45;187234;1237;43077;-61
2023/06/16 09:29:50;;;;;;;6.30;3.60;;;;;;;25.65;57.07;100041.83;187228;1234;42972;-63
2023/06/16 09:34:18;;;;;;;4.80;3.00;;;;;;;25.74;55.04;100035.46;186977;1234;58006;-61
2023/06/16 09:38:20;;;;;;;7.70;3.90;;;;;;;26.06;55.29;100028.52;187303;1233;43294;-61
2023/06/16 09:42:26;;;;;;;4.70;3.60;;;;;;;25.95;53.75;100024.98;187341;1234;44328;-61
2023/06/16 09:46:28;;;;;;;5.80;3.00;;;;;;;25.81;54.82;100027.21;187237;1234;43468;-62
2023/06/16 09:50:31;;;;;;;8.70;4.50;;;;;;;25.93;55.26;100022.64;187271;1237;42935;-62
2023/06/16 09:54:33;;;;;;;3.80;2.80;;;;;;;25.93;54.98;100012.89;187239;1234;57420;-61
2023/06/16 09:58:34;;;;;;;3.90;3.00;;;;;;;26.20;56.78;100004.45;187032;1234;43121;-60
2023/06/16 10:02:50;;;;;;;4.30;3.10;;;;;;;26.36;56.97;100008.96;186971;1235;43177;-61
2023/06/16 10:07:00;;;;;;;5.60;3.50;;;;;;;26.45;54.46;100002.89;186803;1234;43429;-63
2023/06/16 10:11:02;;;;;;;6.00;3.90;;;;;;;26.45;55.77;99998.79;186790;1235;43657;-62
2023/06/16 10:15:07;;;;;;;6.70;4.20;;;;;;;26.33;55.16;99995.15;187192;1234;59325;-62
2023/06/16 10:19:09;;;;;;;8.20;4.10;;;;;;;26.31;56.29;99993.47;187035;1235;42965;-64
2023/06/16 10:24:03;;;;;;;4.70;3.30;;;;;;;26.38;57.14;99993.20;187261;1234;43283;-63
2023/06/16 10:28:11;;;;;;;5.50;3.00;;;;;;;26.24;54.19;99995.39;187297;1234;42960;-61
2023/06/16 10:32:12;;;;;;;4.70;3.10;;;;;;;26.33;52.73;99993.08;186774;1233;43676;-62
2023/06/16 10:36:14;;;;;;;7.30;2.90;;;;;;;26.39;53.48;99996.07;187200;1233;57943;-64
2023/06/16 10:40:25;;;;;;;4.30;3.70;;;;;;;26.51;53.22;99988.52;187264;1234;43521;-62
2023/06/16 10:44:31;;;;;;;4.80;2.20;;;;;;;26.26;52.74;99987.96;186759;1233;42965;-62
2023/06/16 10:48:56;;;;;;;6.10;3.60;;;;;;;26.20;54.60;99986.83;187021;1234;43085;-62
2023/06/16 10:53:14;;;;;;;9.50;4.30;;;;;;;25.90;55.83;99982.20;186755;1234;43735;-62
2023/06/16 10:57:16;;;;;;;5.00;3.70;;;;;;;25.68;54.90;99982.32;187170;1234;59378;-61
2023/06/16 11:01:27;;;;;;;6.20;3.80;;;;;;;25.42;54.85;99986.20;187267;1233;43188;-61
2023/06/16 11:06:02;;;;;;;4.20;3.20;;;;;;;25.10;57.84;99990.13;186863;1235;43474;-62
2023/06/16 11:10:05;;;;;;;6.90;4.00;;;;;;;25.17;56.84;99987.77;186949;1234;43334;-61
2023/06/16 11:14:10;;;;;;;4.20;3.30;;;;;;;25.25;58.43;99981.83;187250;1235;42966;-61
2023/06/16 11:18:16;;;;;;;4.30;3.10;;;;;;;25.59;56.31;99979.15;187175;1234;58119;-63
2023/06/16 11:22:33;;;;;;;3.70;3.20;;;;;;;25.67;57.43;99980.75;187040;1234;43360;-61
2023/06/16 11:26:35;;;;;;;4.40;3.50;;;;;;;25.48;57.84;99975.14;186989;1236;43288;-64
2023/06/16 11:30:37;;;;;;;3.50;2.90;;;;;;;25.04;60.22;99978.85;187254;1234;43805;-63
2023/06/16 11:34:47;;;;;;;3.90;3.30;;;;;;;24.68;59.67;99980.35;187012;1234;43693;-61
2023/06/16 11:43:25;;;;;;;4.70;3.00;;;;;;;24.07;62.55;99980.16;186981;1234;43086;-61
2023/06/16 11:47:29;;;;;;;4.70;2.90;;;;;;;23.82;62.99;99975.84;186762;1235;43774;-63
2023/06/16 11:51:32;;;;;;;3.60;3.00;;;;;;;23.64;64.95;99976.90;186989;1235;43526;-63
2023/06/16 11:55:36;;;;;;;5.50;3.10;;;;;;;23.51;65.96;99972.93;186609;1235;43683;-61
2023/06/16 11:59:40;;;;;;;3.70;3.10;;;;;;;23.42;66.28;99974.25;186618;1235;58586;-62
2023/06/16 12:04:08;;;;;;;3.80;3.10;;;;;;;23.36;64.97;99973.90;186705;1234;43465;-62
2023/06/16 12:08:33;;;;;;;3.30;2.70;;;;;;;23.45;66.73;99974.14;186866;1235;43326;-62
2023/06/16 12:12:38;;;;;;;4.80;3.10;;;;;;;23.67;65.86;99971.84;187050;1235;43100;-60
2023/06/16 12:16:41;;;;;;;5.20;2.50;;;;;;;23.90;64.31;99973.85;186775;1237;43439;-62
2023/06/16 12:20:46;;;;;;;5.00;2.80;;;;;;;24.21;62.38;99978.42;186729;1235;58316;-62
2023/06/16 12:24:48;;;;;;;4.80;3.30;;;;;;;24.45;61.95;99977.38;186744;1235;43402;-61
2023/06/16 12:28:54;;;;;;;7.80;3.30;;;;;;;24.54;65.01;99969.25;186751;1235;43347;-61
2023/06/16 12:32:56;;;;;;;4.80;3.20;;;;;;;24.71;62.04;99970.80;186722;1235;43099;-61
2023/06/16 12:37:01;;;;;;;25.20;9.20;;;;;;;24.82;66.31;99969.89;186691;1234;43712;-61
2023/06/16 12:41:11;;;;;;;6.80;4.50;;;;;;;24.66;66.50;99969.88;186704;1235;58092;-63
2023/06/16 12:45:12;;;;;;;6.80;4.20;;;;;;;24.60;67.42;99966.13;186729;1234;43703;-62
2023/06/16 12:49:22;;;;;;;21.60;7.20;;;;;;;24.44;67.33;99966.34;186992;1235;43772;-62
2023/06/16 12:53:24;;;;;;;4.80;4.00;;;;;;;24.04;66.74;99965.10;186705;1235;43083;-62
2023/06/16 12:57:27;;;;;;;5.10;3.30;;;;;;;24.12;67.39;99959.77;187037;1234;43116;-60
2023/06/16 13:01:28;;;;;;;4.10;3.80;;;;;;;24.42;65.24;99953.08;187048;1238;58044;-63
2023/06/16 13:05:30;;;;;;;6.90;4.00;;;;;;;24.71;64.12;99947.56;186687;1235;43723;-61
2023/06/16 13:09:32;;;;;;;6.40;4.50;;;;;;;24.87;63.03;99945.59;186632;1235;43500;-62
2023/06/16 13:13:34;;;;;;;7.10;4.10;;;;;;;24.75;63.88;99938.45;186601;1235;43023;-61
2023/06/16 13:17:36;;;;;;;6.20;4.40;;;;;;;24.65;65.78;99930.48;187079;1235;42949;-60
2023/06/16 13:21:37;;;;;;;4.40;3.20;;;;;;;24.74;64.30;99932.63;187071;1235;59371;-65
2023/06/16 13:25:39;;;;;;;5.80;4.90;;;;;;;24.77;60.87;99919.08;186807;1235;43655;-65
2023/06/16 13:29:41;;;;;;;4.30;3.70;;;;;;;24.82;60.27;99913.64;187128;1235;44550;-65
2023/06/16 13:33:42;;;;;;;10.30;5.20;;;;;;;24.79;59.74;99913.27;186973;1235;43753;-67
2023/06/16 13:37:47;;;;;;;3.10;2.70;;;;;;;24.81;60.92;99917.73;186688;1234;84863;-83
2023/06/16 13:41:48;;;;;;;4.70;3.60;;;;;;;24.92;62.37;99922.38;186409;1235;60485;-87
2023/06/16 13:45:51;;;;;;;6.70;3.40;;;;;;;25.00;62.02;99925.04;186610;1234;44306;-91
2023/06/16 13:49:53;;;;;;;8.50;2.80;;;;;;;24.98;59.98;99934.69;186403;1234;43980;-86
2023/06/16 13:53:55;;;;;;;4.60;2.90;;;;;;;24.76;61.46;99942.66;186879;1233;43994;-88
2023/06/16 13:57:57;;;;;;;7.40;4.40;;;;;;;24.63;63.49;99956.36;186960;1234;43749;-85
2023/06/16 14:01:59;;;;;;;11.00;4.70;;;;;;;24.52;63.76;99982.63;186634;1233;58095;-85
2023/06/16 14:06:07;;;;;;;6.20;3.90;;;;;;;22.89;64.66;99990.55;186861;1231;43906;31
2023/06/16 14:10:12;;;;;;;6.40;4.40;;;;;;;21.36;71.20;99997.77;186627;1234;43979;-89
2023/06/16 14:14:18;;;;;;;5.30;4.30;;;;;;;20.27;76.52;100010.36;186903;1235;44268;-86
2023/06/16 14:18:20;;;;;;;10.60;4.80;;;;;;;19.37;81.00;100010.85;186254;1235;44079;-83
2023/06/16 14:22:23;;;;;;;10.00;4.50;;;;;;;18.95;83.69;100028.95;186910;1234;59654;-83
2023/06/16 14:26:27;;;;;;;8.50;4.30;;;;;;;18.57;88.14;100033.67;186753;1235;44403;-87
2023/06/16 14:30:30;;;;;;;24.40;8.70;;;;;;;18.51;90.86;100041.14;186226;1234;44703;-83
2023/06/16 14:34:34;;;;;;;10.50;6.20;;;;;;;18.51;91.19;100050.75;186248;1235;45813;31
2023/06/16 14:38:37;;;;;;;11.80;5.40;;;;;;;18.50;93.34;100053.14;186440;1234;44573;-83
2023/06/16 14:42:46;;;;;;;9.30;5.70;;;;;;;18.48;97.40;100055.89;186339;1238;57984;31
2023/06/16 14:46:51;;;;;;;10.20;6.60;;;;;;;18.27;100.00;100059.08;186720;1233;44118;-84
2023/06/16 14:50:53;;;;;;;8.60;5.00;;;;;;;18.23;100.00;100062.00;186818;1233;43875;-84
2023/06/16 14:54:55;;;;;;;8.30;5.60;;;;;;;18.22;100.00;100064.63;186445;1234;44224;-84
2023/06/16 14:59:03;;;;;;;7.70;5.60;;;;;;;18.21;100.00;100058.69;186203;1231;44697;31
2023/06/16 15:03:09;;;;;;;7.50;5.00;;;;;;;18.20;100.00;100064.60;186279;1231;60268;31
2023/06/16 15:07:16;;;;;;;12.40;6.60;;;;;;;18.23;100.00;100064.23;185997;1231;45085;31
2023/06/16 15:11:18;;;;;;;6.20;4.90;;;;;;;18.29;100.00;100070.38;186290;1231;43989;-85
2023/06/16 15:15:23;;;;;;;8.40;4.60;;;;;;;18.29;100.00;100080.11;186384;1236;44847;31
2023/06/16 15:19:30;;;;;;;7.40;4.90;;;;;;;18.22;100.00;100092.27;186193;1231;44223;31
2023/06/16 15:23:48;;;;;;;8.30;5.10;;;;;;;18.28;100.00;100078.69;186149;1235;59515;31
2023/06/16 15:27:54;;;;;;;6.80;5.50;;;;;;;18.38;100.00;100084.86;186048;1236;44222;31
2023/06/16 15:32:03;;;;;;;6.40;3.90;;;;;;;18.41;100.00;100083.41;186400;1233;44229;-82
2023/06/16 15:36:10;;;;;;;5.90;4.00;;;;;;;18.43;100.00;100073.34;185908;1234;87610;-62
2023/06/16 15:40:16;;;;;;;5.60;4.10;;;;;;;18.45;100.00;100065.48;186960;1235;86112;-60
2023/06/16 15:44:19;;;;;;;6.10;3.60;;;;;;;18.45;100.00;100063.46;186593;1234;58714;-61
2023/06/16 15:48:21;;;;;;;8.80;4.60;;;;;;;18.31;100.00;100054.17;186669;1234;43780;-58
2023/06/16 15:52:22;;;;;;;5.00;3.50;;;;;;;18.27;100.00;100049.55;186661;1234;43749;-60
2023/06/16 15:56:24;;;;;;;5.90;4.00;;;;;;;18.25;100.00;100034.48;186613;1234;43379;-59
2023/06/16 16:00:26;;;;;;;5.70;5.10;;;;;;;18.36;100.00;100020.83;186937;1234;43584;-58
2023/06/16 16:04:29;;;;;;;5.50;3.90;;;;;;;18.51;100.00;100015.08;186667;1234;59326;-61
2023/06/16 16:08:32;;;;;;;6.40;4.70;;;;;;;18.56;100.00;100007.32;186981;1234;43442;-63
2023/06/16 16:12:34;;;;;;;5.80;5.10;;;;;;;18.62;100.00;99996.92;186755;1234;43676;-64
2023/06/16 16:16:36;;;;;;;6.20;4.90;;;;;;;18.66;100.00;99989.23;186703;1234;43247;-61
2023/06/16 16:20:39;;;;;;;7.10;5.60;;;;;;;18.66;100.00;99978.90;186717;1234;43593;-63
2023/06/16 16:24:41;;;;;;;6.10;5.50;;;;;;;18.63;100.00;99972.91;186696;1234;58007;-59
2023/06/16 16:28:43;;;;;;;5.20;4.60;;;;;;;18.60;100.00;99968.63;186653;1234;43334;-64
2023/06/16 16:32:44;;;;;;;6.80;5.30;;;;;;;18.60;100.00;99964.29;187001;1234;43828;-62
2023/06/16 16:36:46;;;;;;;6.70;6.00;;;;;;;18.67;100.00;99958.63;186945;1235;43462;-60
2023/06/16 16:40:47;;;;;;;5.20;4.50;;;;;;;18.73;100.00;99955.78;186742;1234;44068;-61
2023/06/16 16:44:50;;;;;;;5.60;5.10;;;;;;;18.76;100.00;99954.13;186633;1234;57211;-61
2023/06/16 16:48:52;;;;;;;6.80;6.10;;;;;;;18.80;100.00;99955.09;186677;1234;44041;-62
2023/06/16 16:52:58;;;;;;;6.40;5.00;;;;;;;18.82;100.00;99956.77;186752;1237;43572;-63
2023/06/16 16:57:00;;;;;;;7.30;5.80;;;;;;;18.90;100.00;99962.39;186584;1238;43105;-60
2023/06/16 17:01:02;;;;;;;9.40;5.70;;;;;;;19.02;100.00;99968.89;186663;1234;42994;-63
2023/06/16 17:05:05;;;;;;;6.20;4.40;;;;;;;19.05;100.00;99970.66;186919;1234;56995;-64
2023/06/16 17:09:06;;;;;;;5.00;4.50;;;;;;;18.92;100.00;99969.84;186723;1234;43756;-63
2023/06/16 17:13:08;;;;;;;7.70;5.70;;;;;;;18.82;100.00;99970.11;186667;1234;43023;-62
2023/06/16 17:17:11;;;;;;;5.50;4.90;;;;;;;18.77;100.00;99972.14;186965;1234;42978;-60
2023/06/16 17:21:13;;;;;;;8.60;6.50;;;;;;;18.82;100.00;99973.02;186949;1234;43749;-65
2023/06/16 17:25:14;;;;;;;6.10;5.60;;;;;;;18.86;100.00;99973.57;186650;1234;58103;-61
2023/06/16 17:29:16;;;;;;;6.40;5.50;;;;;;;18.84;100.00;99973.86;186902;1234;43068;-62
2023/06/16 17:33:18;;;;;;;7.30;6.00;;;;;;;18.90;100.00;99972.02;186559;1234;204496;-60
2023/06/16 17:37:20;;;;;;;7.40;5.10;;;;;;;19.04;100.00;99977.52;186619;1234;43748;-59
2023/06/16 17:41:22;;;;;;;6.00;5.40;;;;;;;19.15;100.00;99976.31;186956;1234;43531;-60
2023/06/16 17:45:24;;;;;;;6.20;5.60;;;;;;;19.25;100.00;99981.40;186953;1234;57870;-60
2023/06/16 17:49:26;;;;;;;7.20;5.50;;;;;;;19.23;100.00;99979.67;186656;1234;43672;-59
2023/06/16 17:53:27;;;;;;;6.30;5.10;;;;;;;19.10;100.00;99975.34;186672;1234;43714;-62
2023/06/16 17:57:29;;;;;;;8.60;5.70;;;;;;;18.99;100.00;99973.99;186942;1234;43624;-62
2023/06/16 18:01:30;;;;;;;5.00;4.40;;;;;;;18.91;100.00;99967.08;186637;1234;43059;-59
2023/06/16 18:05:43;;;;;;;6.90;5.90;;;;;;;18.91;100.00;99968.70;187002;1234;58250;-58
2023/06/16 18:09:45;;;;;;;6.20;5.60;;;;;;;18.91;100.00;99967.34;186393;1235;43709;-88
2023/06/16 18:13:47;;;;;;;5.40;4.50;;;;;;;18.83;100.00;99965.89;186671;1235;43443;-88
2023/06/16 18:17:51;;;;;;;8.50;6.20;;;;;;;18.81;100.00;99971.07;186440;1235;43762;-92
2023/06/16 18:21:58;;;;;;;7.40;5.50;;;;;;;18.86;100.00;99971.98;186744;1235;43680;-88
2023/06/16 18:26:00;;;;;;;10.70;6.80;;;;;;;18.82;100.00;99973.52;186332;1235;58553;-90
2023/06/16 18:30:04;;;;;;;9.00;6.20;;;;;;;18.77;100.00;99976.44;186326;1235;44021;-86
2023/06/16 18:34:07;;;;;;;11.60;6.90;;;;;;;18.68;100.00;99983.33;186695;1235;44154;-87
2023/06/16 18:38:09;;;;;;;13.40;5.70;;;;;;;18.61;100.00;99985.05;186663;1235;86579;-63
2023/06/16 18:42:38;;;;;;;6.60;6.00;;;;;;;18.56;100.00;99987.57;187053;1234;43383;-61
2023/06/16 18:46:39;;;;;;;11.80;7.00;;;;;;;18.56;100.00;99991.73;186638;1239;59595;-59
2023/06/16 18:50:41;;;;;;;9.40;6.10;;;;;;;18.45;100.00;99993.44;186620;1235;43070;-60
2023/06/16 18:54:42;;;;;;;6.90;6.00;;;;;;;18.38;100.00;99990.45;187019;1234;43006;-61
2023/06/16 18:58:45;;;;;;;8.30;6.40;;;;;;;18.30;100.00;99991.74;186677;1235;43662;-66
2023/06/16 19:02:46;;;;;;;7.60;5.70;;;;;;;18.10;100.00;99990.85;187047;1235;43601;-62